Petersburg, MI (49270)

4:23 PM EDT on March 25, 2017 (GMT -0400)
Near Dundee Middle School | | Change Station

Elev 666 ft 41.96 °N, 83.65 °W | Updated 5 seconds ago

Overcast
Overcast
45.1 °F
Feels Like 40 °F
N
8.9
Wind Variable Wind from NE
Gusts 12.3 mph

Today
High -- | Low -- °F
--% Chance of Precip.
Yesterday
High -- | Low -- °F
Precip. -- in
Pressure 30.18 in
Visibility 10.0 miles
Clouds Overcast 700 ft
Windchill 40 °F
Dew Point 39 °F
Humidity 80%
Rainfall 0.00 in
Snow Depth Not available.
7:29 AM 7:52 PM
Waning Crescent, 7% visible
METAR KDUH 251953Z AUTO 09013G20KT 10SM OVC007 05/02 A3018 RMK AO2 T00480023
Pressure 30.18 in
Visibility 10.0 miles
Clouds Overcast 700 ft
Windchill 40 °F
Dew Point 39 °F
Humidity 80%
Rainfall 0.00 in
Snow Depth Not available.
7:29 AM 7:52 PM
Waning Crescent, 7% visible
METAR KDUH 251953Z AUTO 09013G20KT 10SM OVC007 05/02 A3018 RMK AO2 T00480023

Get Severe Weather Alerts

Thanks for signing up!

Be on the lookout for a verification email in your inbox.

You'll start receiving the daily forecast at 8 AM.

×

10-Day Weather Forecast

Almanac

Astronomy

Mar. 25, 2017 Rise Set
Actual Time
Civil Twilight
Nautical Twilight
Astronomical Twilight
Moon
Length of Visible Light
Length of Day
Tomorrow will be .
, % of the Moon is Illuminated

Today's Extremes

State Highs State Lows

Community

WunderPhotos

Upload Photos

1,962,540 photos uploaded!

WunderBlog® & News

Nearby

Air Quality

  Air Quality AQ Index Pollutant
Not available.

Snow Depth

Station Depth Elevation

Earthquake Activity

City Distance Mag. Time & Date
Minimum magnitude displayed is 2.5.

Earthquake Activity

City Distance Mag. Time & Date
Minimum magnitude displayed is 2.5.

Coastal Water Temperatures

Place Temperature

Stations

Nearby Weather Stations

Station Location Temp. Windchill Dew Point Humidity Wind Precip. Elev Updated Type
                   

Watches & Warnings

There are currently no watches in effect.